Fillmore, Kentucky
Current Conditions -  °F | °C
As of 4:53 PM on Tuesday 25 Nov 2014 (Local Time) from KJKL Reporting Station
Clear Clear  
Wind Chill: 50°   Ceiling: Unl
Heat Index: 50°   Visibility: 10mi
Dew Point: 24°   Wind: 3mph
Humidity: 36%   Direction: 300°WNW
Pressure: 30.07"   Gusts: NA
Location:  37.5908°N, 83.7186°W
Report Text: KJKL 252153Z AUTO 30003KT 10SM CLR 10/M04 A3007 RMK AO2 SLP183 T01001044
Loading
Personal Weather Stations






























Interactive Weather Map New forecast layout! Learn more

10-Day Weather Forecast

Advertisements
Track Severe Weather on mobile